Kwajalein/Bucholz, Marshall Islands
Current Conditions -  °F | °C
As of 2:20 AM on Saturday 20 Dec 2014 (Local Time) from PKWA Reporting Station
Scattered Clouds Scattered Clouds  
Wind Chill: 81°   Ceiling: Unl
Heat Index: 87°   Visibility: 10mi
Dew Point: 75°   Wind: 14mph
Humidity: 81%   Direction: 60°ENE
Pressure: 29.81"   Gusts: NA
Location:  8.73°N, 167.73°E
Report Text: PKWA 191420Z AUTO 06012KT 10SM SCT015 27/24 A2981 RMK AO2 T02740239
Loading
Personal Weather Stations






























Interactive Weather Map New forecast layout! Learn more

10-Day Weather Forecast

Advertisements
Track Severe Weather on mobile